Mundford, United Kingdom
Current Conditions -  °F | °C
As of 3:58 AM on Thursday 23 Oct 2014 (Local Time) from EGUL Reporting Station
Overcast Overcast  
Wind Chill: 52°   Ceiling: 10000
Heat Index: 52°   Visibility: 6mi
Dew Point: 52°   Wind: 14mph
Humidity: 100%   Direction: 230°SW
Pressure: 30.11"   Gusts: NA
Location:  52.51°N, 0.66°E
Report Text: EGUL 230258Z AUTO 23012KT 9999 SCT033 OVC100 11/11 A3011 RMK AO2 SLP199 T01090109 57010
Loading
Personal Weather Stations






























Interactive Weather Map
Tropical Storm Tracking
New forecast layout! Learn more

10-Day Weather Forecast

Advertisements
Track Severe Weather on mobile